EBBR/BRU METAR and TAF weather

Enter ICAO airport designator
Station Type Date Time Source
EBBR METAR 2021/04/13 21:50 UTC NOAA

EBBR 132150Z 06001KT CAVOK 04/M02 Q1032 NOSIG


Station Type Date Time Source
EBBR Decoded METAR 2021/04/13 21:50 UTC NOAA

Bruxelles National, Belgium (EBBR) 50-54N 004-32E 58M
Apr 13, 2021 - 05:50 PM EDT / 2021.04.13 2150 UTC
Wind: from the ENE (060 degrees) at 1 MPH (1 KT):0
Visibility: greater than 7 mile(s):0
Temperature: 39 F (4 C)
Dew Point: 28 F (-2 C)
Relative Humidity: 64%
Pressure (altimeter): 30.47 in. Hg (1032 hPa)
ob: EBBR 132150Z 06001KT CAVOK 04/M02 Q1032 NOSIG
cycle: 22

Station Type Date Time Source
EBBR TAF 2021/04/13 18:28 UTC NOAA

TAF EBBR 131710Z 1318/1424 VRB03KT CAVOK PROB30
TEMPO 1413/1418 3000 SHRA SHRAGS
BECMG 1411/1413 36010KT

Example: see airport list